sensor_id;sensor_type;location;lat;lon;timestamp;P1;durP1;ratioP1;P2;durP2;ratioP2
673;SDS011;319;48.764;9.174;2023-05-23T00:00:44;5.40;;;5.30;;
673;SDS011;319;48.764;9.174;2023-05-23T00:03:13;5.20;;;5.10;;
673;SDS011;319;48.764;9.174;2023-05-23T00:05:40;5.10;;;5.00;;
673;SDS011;319;48.764;9.174;2023-05-23T00:08:06;5.00;;;4.90;;
673;SDS011;319;48.764;9.174;2023-05-23T00:10:33;4.90;;;4.80;;
673;SDS011;319;48.764;9.174;2023-05-23T00:13:00;4.90;;;4.80;;
673;SDS011;319;48.764;9.174;2023-05-23T00:15:27;4.20;;;4.10;;
673;SDS011;319;48.764;9.174;2023-05-23T00:17:55;3.90;;;3.80;;
673;SDS011;319;48.764;9.174;2023-05-23T00:20:23;4.00;;;3.90;;
673;SDS011;319;48.764;9.174;2023-05-23T00:22:50;3.60;;;3.50;;
673;SDS011;319;48.764;9.174;2023-05-23T00:25:17;3.60;;;3.50;;
673;SDS011;319;48.764;9.174;2023-05-23T00:27:45;3.40;;;3.30;;
673;SDS011;319;48.764;9.174;2023-05-23T00:30:12;3.50;;;3.40;;
673;SDS011;319;48.764;9.174;2023-05-23T00:32:39;3.60;;;3.50;;
673;SDS011;319;48.764;9.174;2023-05-23T00:35:07;3.40;;;3.30;;
673;SDS011;319;48.764;9.174;2023-05-23T00:37:35;3.50;;;3.40;;
673;SDS011;319;48.764;9.174;2023-05-23T00:40:05;4.80;;;4.50;;
673;SDS011;319;48.764;9.174;2023-05-23T00:42:33;3.50;;;3.40;;
673;SDS011;319;48.764;9.174;2023-05-23T00:45:00;3.30;;;3.20;;
673;SDS011;319;48.764;9.174;2023-05-23T00:47:26;3.50;;;3.40;;
673;SDS011;319;48.764;9.174;2023-05-23T00:49:54;3.50;;;3.40;;
673;SDS011;319;48.764;9.174;2023-05-23T00:52:21;3.50;;;3.40;;
673;SDS011;319;48.764;9.174;2023-05-23T00:54:49;3.40;;;3.30;;
673;SDS011;319;48.764;9.174;2023-05-23T00:57:16;3.50;;;3.40;;
673;SDS011;319;48.764;9.174;2023-05-23T00:59:43;3.70;;;3.60;;
673;SDS011;319;48.764;9.174;2023-05-23T01:02:11;3.73;;;3.63;;
673;SDS011;319;48.764;9.174;2023-05-23T01:04:38;4.80;;;4.70;;
673;SDS011;319;48.764;9.174;2023-05-23T01:07:07;3.60;;;3.50;;
673;SDS011;319;48.764;9.174;2023-05-23T01:09:35;3.60;;;3.50;;
673;SDS011;319;48.764;9.174;2023-05-23T01:12:07;3.30;;;3.20;;
673;SDS011;319;48.764;9.174;2023-05-23T01:14:45;3.20;;;3.10;;
673;SDS011;319;48.764;9.174;2023-05-23T01:17:18;3.20;;;3.10;;
673;SDS011;319;48.764;9.174;2023-05-23T01:19:57;3.27;;;3.17;;
673;SDS011;319;48.764;9.174;2023-05-23T01:22:32;3.40;;;3.30;;
673;SDS011;319;48.764;9.174;2023-05-23T01:25:08;3.00;;;2.90;;
673;SDS011;319;48.764;9.174;2023-05-23T01:27:45;3.10;;;3.00;;
673;SDS011;319;48.764;9.174;2023-05-23T01:30:16;3.10;;;3.00;;
673;SDS011;319;48.764;9.174;2023-05-23T01:32:44;3.10;;;3.00;;
673;SDS011;319;48.764;9.174;2023-05-23T01:35:13;3.10;;;3.00;;
673;SDS011;319;48.764;9.174;2023-05-23T01:37:45;3.13;;;3.03;;
673;SDS011;319;48.764;9.174;2023-05-23T01:40:12;3.20;;;3.10;;
673;SDS011;319;48.764;9.174;2023-05-23T01:42:38;3.10;;;3.00;;
673;SDS011;319;48.764;9.174;2023-05-23T01:45:08;3.20;;;3.10;;
673;SDS011;319;48.764;9.174;2023-05-23T01:47:36;3.30;;;3.20;;
673;SDS011;319;48.764;9.174;2023-05-23T01:50:05;3.50;;;3.40;;
673;SDS011;319;48.764;9.174;2023-05-23T01:52:33;3.20;;;3.10;;
673;SDS011;319;48.764;9.174;2023-05-23T01:55:00;3.10;;;3.00;;
673;SDS011;319;48.764;9.174;2023-05-23T01:57:28;3.20;;;3.10;;
673;SDS011;319;48.764;9.174;2023-05-23T01:59:58;3.20;;;3.10;;
673;SDS011;319;48.764;9.174;2023-05-23T02:02:26;3.30;;;3.20;;
673;SDS011;319;48.764;9.174;2023-05-23T02:04:54;3.17;;;3.07;;
673;SDS011;319;48.764;9.174;2023-05-23T02:07:22;3.10;;;3.00;;
673;SDS011;319;48.764;9.174;2023-05-23T02:09:48;3.30;;;3.20;;
673;SDS011;319;48.764;9.174;2023-05-23T02:12:15;3.33;;;3.23;;
673;SDS011;319;48.764;9.174;2023-05-23T02:14:42;3.40;;;3.30;;
673;SDS011;319;48.764;9.174;2023-05-23T02:17:09;3.30;;;3.20;;
673;SDS011;319;48.764;9.174;2023-05-23T02:19:37;3.20;;;3.10;;
673;SDS011;319;48.764;9.174;2023-05-23T02:22:04;3.00;;;2.90;;
673;SDS011;319;48.764;9.174;2023-05-23T02:24:31;3.20;;;3.10;;
673;SDS011;319;48.764;9.174;2023-05-23T02:26:58;3.20;;;3.10;;
673;SDS011;319;48.764;9.174;2023-05-23T02:29:24;3.30;;;3.20;;
673;SDS011;319;48.764;9.174;2023-05-23T02:31:51;3.23;;;3.13;;
673;SDS011;319;48.764;9.174;2023-05-23T02:34:18;3.10;;;3.00;;
673;SDS011;319;48.764;9.174;2023-05-23T02:36:46;3.30;;;3.20;;
673;SDS011;319;48.764;9.174;2023-05-23T02:39:13;3.30;;;3.20;;
673;SDS011;319;48.764;9.174;2023-05-23T02:41:40;3.00;;;2.90;;
673;SDS011;319;48.764;9.174;2023-05-23T02:44:07;3.03;;;2.93;;
673;SDS011;319;48.764;9.174;2023-05-23T02:46:34;3.10;;;3.00;;
673;SDS011;319;48.764;9.174;2023-05-23T02:49:01;2.50;;;2.50;;
673;SDS011;319;48.764;9.174;2023-05-23T02:51:27;3.00;;;2.90;;
673;SDS011;319;48.764;9.174;2023-05-23T02:53:57;2.90;;;2.80;;
673;SDS011;319;48.764;9.174;2023-05-23T02:56:23;2.90;;;2.80;;
673;SDS011;319;48.764;9.174;2023-05-23T02:58:50;2.90;;;2.80;;
673;SDS011;319;48.764;9.174;2023-05-23T03:01:20;3.00;;;2.90;;
673;SDS011;319;48.764;9.174;2023-05-23T03:03:47;3.00;;;2.90;;
673;SDS011;319;48.764;9.174;2023-05-23T03:06:14;3.00;;;2.90;;
673;SDS011;319;48.764;9.174;2023-05-23T03:08:41;2.97;;;2.87;;
673;SDS011;319;48.764;9.174;2023-05-23T03:11:09;2.53;;;2.53;;
673;SDS011;319;48.764;9.174;2023-05-23T03:13:36;3.00;;;2.90;;
673;SDS011;319;48.764;9.174;2023-05-23T03:16:03;3.00;;;2.90;;
673;SDS011;319;48.764;9.174;2023-05-23T03:18:30;3.50;;;3.40;;
673;SDS011;319;48.764;9.174;2023-05-23T03:20:57;3.40;;;3.30;;
673;SDS011;319;48.764;9.174;2023-05-23T03:23:24;3.07;;;2.97;;
673;SDS011;319;48.764;9.174;2023-05-23T03:25:51;3.30;;;3.20;;
673;SDS011;319;48.764;9.174;2023-05-23T03:28:22;3.60;;;3.50;;
673;SDS011;319;48.764;9.174;2023-05-23T03:30:49;3.20;;;3.10;;
673;SDS011;319;48.764;9.174;2023-05-23T03:33:16;3.30;;;3.20;;
673;SDS011;319;48.764;9.174;2023-05-23T03:35:42;3.27;;;3.17;;
673;SDS011;319;48.764;9.174;2023-05-23T03:38:09;3.50;;;3.40;;
673;SDS011;319;48.764;9.174;2023-05-23T03:40:36;2.97;;;2.87;;
673;SDS011;319;48.764;9.174;2023-05-23T03:43:03;3.10;;;3.00;;
673;SDS011;319;48.764;9.174;2023-05-23T03:45:33;2.90;;;2.80;;
673;SDS011;319;48.764;9.174;2023-05-23T03:48:00;3.40;;;3.30;;
673;SDS011;319;48.764;9.174;2023-05-23T03:50:27;3.10;;;3.00;;
673;SDS011;319;48.764;9.174;2023-05-23T03:52:54;3.10;;;3.00;;
673;SDS011;319;48.764;9.174;2023-05-23T03:55:20;2.83;;;2.77;;
673;SDS011;319;48.764;9.174;2023-05-23T03:57:48;3.00;;;2.90;;
673;SDS011;319;48.764;9.174;2023-05-23T04:00:15;2.50;;;2.50;;
673;SDS011;319;48.764;9.174;2023-05-23T04:02:44;3.17;;;3.07;;
673;SDS011;319;48.764;9.174;2023-05-23T04:05:12;3.20;;;3.10;;
673;SDS011;319;48.764;9.174;2023-05-23T04:07:39;2.27;;;2.27;;
673;SDS011;319;48.764;9.174;2023-05-23T04:10:07;3.43;;;3.33;;
673;SDS011;319;48.764;9.174;2023-05-23T04:12:34;3.00;;;2.90;;
673;SDS011;319;48.764;9.174;2023-05-23T04:15:02;3.60;;;3.50;;
673;SDS011;319;48.764;9.174;2023-05-23T04:17:30;3.27;;;3.17;;
673;SDS011;319;48.764;9.174;2023-05-23T04:19:58;3.23;;;3.13;;
673;SDS011;319;48.764;9.174;2023-05-23T04:22:25;3.30;;;3.20;;
673;SDS011;319;48.764;9.174;2023-05-23T04:24:52;3.40;;;3.30;;
673;SDS011;319;48.764;9.174;2023-05-23T04:27:18;3.13;;;3.03;;
673;SDS011;319;48.764;9.174;2023-05-23T04:29:46;3.30;;;3.20;;
673;SDS011;319;48.764;9.174;2023-05-23T04:32:13;3.40;;;3.30;;
673;SDS011;319;48.764;9.174;2023-05-23T04:34:42;3.40;;;3.30;;
673;SDS011;319;48.764;9.174;2023-05-23T04:37:10;3.20;;;3.10;;
673;SDS011;319;48.764;9.174;2023-05-23T04:39:38;3.40;;;3.30;;
673;SDS011;319;48.764;9.174;2023-05-23T04:42:05;3.40;;;3.30;;
673;SDS011;319;48.764;9.174;2023-05-23T04:44:32;3.10;;;3.00;;
673;SDS011;319;48.764;9.174;2023-05-23T04:47:04;3.40;;;3.30;;
673;SDS011;319;48.764;9.174;2023-05-23T04:49:33;3.27;;;3.17;;
673;SDS011;319;48.764;9.174;2023-05-23T04:52:00;3.10;;;3.00;;
673;SDS011;319;48.764;9.174;2023-05-23T04:54:28;3.50;;;3.40;;
673;SDS011;319;48.764;9.174;2023-05-23T04:56:55;3.40;;;3.30;;
673;SDS011;319;48.764;9.174;2023-05-23T04:59:22;3.30;;;3.20;;
673;SDS011;319;48.764;9.174;2023-05-23T05:01:49;3.23;;;3.13;;
673;SDS011;319;48.764;9.174;2023-05-23T05:04:16;2.97;;;2.87;;
673;SDS011;319;48.764;9.174;2023-05-23T05:06:43;3.20;;;3.10;;
673;SDS011;319;48.764;9.174;2023-05-23T05:09:12;2.57;;;2.57;;
673;SDS011;319;48.764;9.174;2023-05-23T05:11:40;3.10;;;3.00;;
673;SDS011;319;48.764;9.174;2023-05-23T05:14:07;3.50;;;3.40;;
673;SDS011;319;48.764;9.174;2023-05-23T05:16:34;3.70;;;3.60;;
673;SDS011;319;48.764;9.174;2023-05-23T05:19:01;3.53;;;3.43;;
673;SDS011;319;48.764;9.174;2023-05-23T05:21:28;3.50;;;3.40;;
673;SDS011;319;48.764;9.174;2023-05-23T05:23:56;3.30;;;3.20;;
673;SDS011;319;48.764;9.174;2023-05-23T05:26:24;3.43;;;3.33;;
673;SDS011;319;48.764;9.174;2023-05-23T05:28:53;3.20;;;3.10;;
673;SDS011;319;48.764;9.174;2023-05-23T05:31:20;3.20;;;3.10;;
673;SDS011;319;48.764;9.174;2023-05-23T05:33:47;2.60;;;2.60;;
673;SDS011;319;48.764;9.174;2023-05-23T05:36:14;3.40;;;3.30;;
673;SDS011;319;48.764;9.174;2023-05-23T05:38:41;2.80;;;2.70;;
673;SDS011;319;48.764;9.174;2023-05-23T05:41:08;3.10;;;3.00;;
673;SDS011;319;48.764;9.174;2023-05-23T05:43:38;3.20;;;3.10;;
673;SDS011;319;48.764;9.174;2023-05-23T05:46:06;2.90;;;2.80;;
673;SDS011;319;48.764;9.174;2023-05-23T05:48:33;3.00;;;2.90;;
673;SDS011;319;48.764;9.174;2023-05-23T05:51:00;2.90;;;2.80;;
673;SDS011;319;48.764;9.174;2023-05-23T05:53:27;3.20;;;3.10;;
673;SDS011;319;48.764;9.174;2023-05-23T05:55:54;2.87;;;2.77;;
673;SDS011;319;48.764;9.174;2023-05-23T05:58:21;3.30;;;3.20;;
673;SDS011;319;48.764;9.174;2023-05-23T06:00:47;3.00;;;2.90;;
673;SDS011;319;48.764;9.174;2023-05-23T06:03:16;4.20;;;4.10;;
673;SDS011;319;48.764;9.174;2023-05-23T06:05:43;2.90;;;2.80;;
673;SDS011;319;48.764;9.174;2023-05-23T06:08:10;3.37;;;3.27;;
673;SDS011;319;48.764;9.174;2023-05-23T06:10:36;2.80;;;2.70;;
673;SDS011;319;48.764;9.174;2023-05-23T06:13:04;3.40;;;3.30;;
673;SDS011;319;48.764;9.174;2023-05-23T06:15:30;3.20;;;3.10;;
673;SDS011;319;48.764;9.174;2023-05-23T06:17:57;3.60;;;3.50;;
673;SDS011;319;48.764;9.174;2023-05-23T06:20:25;3.30;;;3.20;;
673;SDS011;319;48.764;9.174;2023-05-23T06:22:52;3.20;;;3.10;;
673;SDS011;319;48.764;9.174;2023-05-23T06:25:19;2.90;;;2.80;;
673;SDS011;319;48.764;9.174;2023-05-23T06:27:46;3.40;;;3.30;;
673;SDS011;319;48.764;9.174;2023-05-23T06:30:14;3.40;;;3.30;;
673;SDS011;319;48.764;9.174;2023-05-23T06:32:41;4.43;;;4.33;;
673;SDS011;319;48.764;9.174;2023-05-23T06:35:08;3.10;;;3.00;;
673;SDS011;319;48.764;9.174;2023-05-23T06:37:36;3.23;;;3.13;;
673;SDS011;319;48.764;9.174;2023-05-23T06:40:07;3.80;;;3.70;;
673;SDS011;319;48.764;9.174;2023-05-23T06:42:35;3.73;;;3.63;;
673;SDS011;319;48.764;9.174;2023-05-23T06:45:02;4.00;;;3.90;;
673;SDS011;319;48.764;9.174;2023-05-23T06:47:29;3.90;;;3.80;;
673;SDS011;319;48.764;9.174;2023-05-23T06:49:56;4.20;;;4.10;;
673;SDS011;319;48.764;9.174;2023-05-23T06:52:23;3.73;;;3.63;;
673;SDS011;319;48.764;9.174;2023-05-23T06:54:51;4.10;;;4.00;;
673;SDS011;319;48.764;9.174;2023-05-23T06:57:18;4.20;;;4.10;;
673;SDS011;319;48.764;9.174;2023-05-23T06:59:45;3.40;;;3.30;;
673;SDS011;319;48.764;9.174;2023-05-23T07:02:12;4.60;;;4.50;;
673;SDS011;319;48.764;9.174;2023-05-23T07:04:39;3.70;;;3.60;;
673;SDS011;319;48.764;9.174;2023-05-23T07:07:06;3.83;;;3.73;;
673;SDS011;319;48.764;9.174;2023-05-23T07:09:33;3.80;;;3.70;;
673;SDS011;319;48.764;9.174;2023-05-23T07:12:01;3.80;;;3.70;;
673;SDS011;319;48.764;9.174;2023-05-23T07:14:28;3.50;;;3.40;;
673;SDS011;319;48.764;9.174;2023-05-23T07:16:54;4.00;;;3.90;;
673;SDS011;319;48.764;9.174;2023-05-23T07:19:21;3.40;;;3.30;;
673;SDS011;319;48.764;9.174;2023-05-23T07:21:48;4.50;;;4.40;;
673;SDS011;319;48.764;9.174;2023-05-23T07:24:15;4.10;;;4.00;;
673;SDS011;319;48.764;9.174;2023-05-23T07:26:42;3.00;;;2.90;;
673;SDS011;319;48.764;9.174;2023-05-23T07:29:10;3.10;;;3.00;;
673;SDS011;319;48.764;9.174;2023-05-23T07:31:37;3.90;;;3.80;;
673;SDS011;319;48.764;9.174;2023-05-23T07:34:04;4.23;;;4.13;;
673;SDS011;319;48.764;9.174;2023-05-23T07:36:31;4.10;;;4.00;;
673;SDS011;319;48.764;9.174;2023-05-23T07:38:59;4.30;;;4.20;;
673;SDS011;319;48.764;9.174;2023-05-23T07:41:26;3.20;;;3.10;;
673;SDS011;319;48.764;9.174;2023-05-23T07:43:53;3.00;;;2.90;;
673;SDS011;319;48.764;9.174;2023-05-23T07:46:21;3.20;;;3.10;;
673;SDS011;319;48.764;9.174;2023-05-23T07:48:48;2.47;;;2.47;;
673;SDS011;319;48.764;9.174;2023-05-23T07:51:15;2.80;;;2.70;;
673;SDS011;319;48.764;9.174;2023-05-23T07:53:44;3.00;;;2.90;;
673;SDS011;319;48.764;9.174;2023-05-23T07:56:11;3.40;;;3.30;;
673;SDS011;319;48.764;9.174;2023-05-23T07:58:37;4.20;;;4.10;;
673;SDS011;319;48.764;9.174;2023-05-23T08:01:04;3.70;;;3.60;;
673;SDS011;319;48.764;9.174;2023-05-23T08:03:33;4.10;;;4.00;;
673;SDS011;319;48.764;9.174;2023-05-23T08:06:01;3.90;;;3.80;;
673;SDS011;319;48.764;9.174;2023-05-23T08:08:28;4.17;;;4.07;;
673;SDS011;319;48.764;9.174;2023-05-23T08:10:55;4.20;;;4.10;;
673;SDS011;319;48.764;9.174;2023-05-23T08:13:22;4.40;;;4.30;;
673;SDS011;319;48.764;9.174;2023-05-23T08:15:49;5.33;;;4.97;;
673;SDS011;319;48.764;9.174;2023-05-23T08:18:16;4.30;;;4.20;;
673;SDS011;319;48.764;9.174;2023-05-23T08:20:44;4.00;;;3.90;;
673;SDS011;319;48.764;9.174;2023-05-23T08:23:11;3.80;;;3.70;;
673;SDS011;319;48.764;9.174;2023-05-23T08:25:38;3.70;;;3.60;;
673;SDS011;319;48.764;9.174;2023-05-23T08:28:05;3.57;;;3.47;;
673;SDS011;319;48.764;9.174;2023-05-23T08:30:32;3.50;;;3.40;;
673;SDS011;319;48.764;9.174;2023-05-23T08:32:58;4.30;;;4.20;;
673;SDS011;319;48.764;9.174;2023-05-23T08:35:28;4.83;;;4.73;;
673;SDS011;319;48.764;9.174;2023-05-23T08:38:00;4.70;;;4.60;;
673;SDS011;319;48.764;9.174;2023-05-23T08:40:27;5.20;;;5.10;;
673;SDS011;319;48.764;9.174;2023-05-23T08:42:57;3.80;;;3.70;;
673;SDS011;319;48.764;9.174;2023-05-23T08:45:24;3.60;;;3.50;;
673;SDS011;319;48.764;9.174;2023-05-23T08:47:54;3.20;;;3.10;;
673;SDS011;319;48.764;9.174;2023-05-23T08:50:21;3.60;;;3.50;;
673;SDS011;319;48.764;9.174;2023-05-23T08:52:52;3.77;;;3.67;;
673;SDS011;319;48.764;9.174;2023-05-23T08:55:23;4.00;;;3.90;;
673;SDS011;319;48.764;9.174;2023-05-23T08:57:51;3.60;;;3.50;;
673;SDS011;319;48.764;9.174;2023-05-23T09:00:19;4.03;;;3.93;;
673;SDS011;319;48.764;9.174;2023-05-23T09:02:47;4.50;;;4.40;;
673;SDS011;319;48.764;9.174;2023-05-23T09:05:14;4.40;;;4.30;;
673;SDS011;319;48.764;9.174;2023-05-23T09:07:41;4.23;;;4.13;;
673;SDS011;319;48.764;9.174;2023-05-23T09:10:12;4.20;;;4.10;;
673;SDS011;319;48.764;9.174;2023-05-23T09:12:42;4.20;;;4.10;;
673;SDS011;319;48.764;9.174;2023-05-23T09:15:10;4.50;;;4.40;;
673;SDS011;319;48.764;9.174;2023-05-23T09:17:37;3.70;;;3.60;;
673;SDS011;319;48.764;9.174;2023-05-23T09:20:09;4.20;;;4.10;;
673;SDS011;319;48.764;9.174;2023-05-23T09:22:37;4.40;;;4.30;;
673;SDS011;319;48.764;9.174;2023-05-23T09:25:04;4.40;;;4.30;;
673;SDS011;319;48.764;9.174;2023-05-23T09:27:32;4.00;;;3.90;;
673;SDS011;319;48.764;9.174;2023-05-23T09:30:05;3.80;;;3.70;;
673;SDS011;319;48.764;9.174;2023-05-23T09:32:33;4.60;;;4.50;;
673;SDS011;319;48.764;9.174;2023-05-23T09:35:00;4.70;;;4.60;;
673;SDS011;319;48.764;9.174;2023-05-23T09:37:28;4.90;;;4.80;;
673;SDS011;319;48.764;9.174;2023-05-23T09:39:57;5.00;;;4.90;;
673;SDS011;319;48.764;9.174;2023-05-23T09:42:25;4.67;;;4.57;;
673;SDS011;319;48.764;9.174;2023-05-23T09:44:57;4.90;;;4.80;;
673;SDS011;319;48.764;9.174;2023-05-23T09:47:25;4.30;;;4.20;;
673;SDS011;319;48.764;9.174;2023-05-23T09:49:53;4.37;;;4.27;;
673;SDS011;319;48.764;9.174;2023-05-23T09:52:20;5.30;;;5.20;;
673;SDS011;319;48.764;9.174;2023-05-23T09:54:47;4.70;;;4.60;;
673;SDS011;319;48.764;9.174;2023-05-23T09:57:14;5.20;;;5.10;;
673;SDS011;319;48.764;9.174;2023-05-23T09:59:47;5.60;;;5.50;;
673;SDS011;319;48.764;9.174;2023-05-23T10:02:23;5.50;;;5.40;;
673;SDS011;319;48.764;9.174;2023-05-23T10:05:26;6.03;;;5.87;;
673;SDS011;319;48.764;9.174;2023-05-23T10:07:58;4.93;;;4.83;;
673;SDS011;319;48.764;9.174;2023-05-23T10:10:27;5.50;;;5.40;;
673;SDS011;319;48.764;9.174;2023-05-23T10:12:56;5.63;;;5.53;;
673;SDS011;319;48.764;9.174;2023-05-23T10:15:28;5.80;;;5.70;;
673;SDS011;319;48.764;9.174;2023-05-23T10:18:04;5.30;;;5.20;;
673;SDS011;319;48.764;9.174;2023-05-23T10:20:35;5.77;;;5.67;;
673;SDS011;319;48.764;9.174;2023-05-23T10:23:05;7.10;;;6.90;;
673;SDS011;319;48.764;9.174;2023-05-23T10:25:32;8.20;;;8.00;;
673;SDS011;319;48.764;9.174;2023-05-23T10:28:01;7.53;;;7.33;;
673;SDS011;319;48.764;9.174;2023-05-23T10:30:29;11.50;;;11.20;;
673;SDS011;319;48.764;9.174;2023-05-23T10:32:57;11.10;;;10.80;;
673;SDS011;319;48.764;9.174;2023-05-23T10:35:30;10.23;;;9.93;;
673;SDS011;319;48.764;9.174;2023-05-23T10:38:07;8.90;;;8.70;;
673;SDS011;319;48.764;9.174;2023-05-23T10:40:45;10.17;;;9.87;;
673;SDS011;319;48.764;9.174;2023-05-23T10:43:19;12.90;;;12.50;;
673;SDS011;319;48.764;9.174;2023-05-23T10:45:52;13.50;;;13.10;;
673;SDS011;319;48.764;9.174;2023-05-23T10:48:19;10.20;;;9.90;;
673;SDS011;319;48.764;9.174;2023-05-23T10:51:01;11.93;;;11.63;;
673;SDS011;319;48.764;9.174;2023-05-23T10:53:30;10.80;;;10.50;;
673;SDS011;319;48.764;9.174;2023-05-23T10:55:57;10.50;;;10.20;;
673;SDS011;319;48.764;9.174;2023-05-23T10:58:24;10.00;;;9.70;;
673;SDS011;319;48.764;9.174;2023-05-23T11:00:55;10.73;;;10.43;;
673;SDS011;319;48.764;9.174;2023-05-23T11:03:31;9.13;;;8.93;;
673;SDS011;319;48.764;9.174;2023-05-23T11:06:04;10.50;;;10.20;;
673;SDS011;319;48.764;9.174;2023-05-23T11:08:38;8.70;;;8.50;;
673;SDS011;319;48.764;9.174;2023-05-23T11:11:06;10.40;;;10.10;;
673;SDS011;319;48.764;9.174;2023-05-23T11:16:23;10.80;;;10.50;;
673;SDS011;319;48.764;9.174;2023-05-23T11:18:50;10.90;;;10.60;;
673;SDS011;319;48.764;9.174;2023-05-23T11:21:19;11.00;;;10.70;;
673;SDS011;319;48.764;9.174;2023-05-23T11:23:46;11.53;;;11.23;;
673;SDS011;319;48.764;9.174;2023-05-23T11:26:29;11.20;;;10.90;;
673;SDS011;319;48.764;9.174;2023-05-23T11:28:56;11.90;;;11.60;;
673;SDS011;319;48.764;9.174;2023-05-23T11:31:23;11.87;;;11.57;;
673;SDS011;319;48.764;9.174;2023-05-23T11:33:50;10.07;;;9.80;;
673;SDS011;319;48.764;9.174;2023-05-23T11:36:21;11.73;;;11.43;;
673;SDS011;319;48.764;9.174;2023-05-23T11:38:48;12.40;;;12.10;;
673;SDS011;319;48.764;9.174;2023-05-23T11:41:16;12.30;;;12.00;;
673;SDS011;319;48.764;9.174;2023-05-23T11:43:48;10.90;;;10.60;;
673;SDS011;319;48.764;9.174;2023-05-23T11:46:15;12.10;;;11.80;;
673;SDS011;319;48.764;9.174;2023-05-23T11:48:43;12.03;;;11.73;;
673;SDS011;319;48.764;9.174;2023-05-23T11:51:10;11.10;;;10.80;;
673;SDS011;319;48.764;9.174;2023-05-23T11:53:39;11.30;;;11.00;;
673;SDS011;319;48.764;9.174;2023-05-23T11:56:06;11.40;;;11.10;;
673;SDS011;319;48.764;9.174;2023-05-23T11:58:33;10.87;;;10.57;;
673;SDS011;319;48.764;9.174;2023-05-23T12:01:01;11.13;;;10.83;;
673;SDS011;319;48.764;9.174;2023-05-23T12:03:29;11.80;;;11.50;;
673;SDS011;319;48.764;9.174;2023-05-23T12:05:56;11.87;;;11.57;;
673;SDS011;319;48.764;9.174;2023-05-23T12:08:23;11.70;;;11.40;;
673;SDS011;319;48.764;9.174;2023-05-23T12:10:52;13.70;;;13.30;;
673;SDS011;319;48.764;9.174;2023-05-23T12:13:22;14.37;;;13.97;;
673;SDS011;319;48.764;9.174;2023-05-23T12:15:52;15.50;;;15.10;;
673;SDS011;319;48.764;9.174;2023-05-23T12:18:20;7.00;;;6.80;;
673;SDS011;319;48.764;9.174;2023-05-23T12:20:47;10.47;;;10.17;;
673;SDS011;319;48.764;9.174;2023-05-23T12:23:18;11.20;;;10.90;;
673;SDS011;319;48.764;9.174;2023-05-23T12:25:48;10.40;;;10.10;;
673;SDS011;319;48.764;9.174;2023-05-23T12:28:18;9.40;;;9.20;;
673;SDS011;319;48.764;9.174;2023-05-23T12:30:45;5.93;;;5.83;;
673;SDS011;319;48.764;9.174;2023-05-23T12:33:12;9.63;;;9.43;;
673;SDS011;319;48.764;9.174;2023-05-23T12:35:41;8.60;;;8.40;;
673;SDS011;319;48.764;9.174;2023-05-23T12:38:09;4.00;;;3.90;;
673;SDS011;319;48.764;9.174;2023-05-23T12:40:40;6.27;;;6.17;;
673;SDS011;319;48.764;9.174;2023-05-23T12:43:07;3.63;;;3.53;;
673;SDS011;319;48.764;9.174;2023-05-23T12:45:36;2.70;;;2.60;;
673;SDS011;319;48.764;9.174;2023-05-23T12:48:03;0.90;;;0.90;;
673;SDS011;319;48.764;9.174;2023-05-23T12:50:31;5.70;;;5.60;;
673;SDS011;319;48.764;9.174;2023-05-23T12:52:58;6.33;;;6.20;;
673;SDS011;319;48.764;9.174;2023-05-23T12:55:25;6.40;;;6.20;;
673;SDS011;319;48.764;9.174;2023-05-23T12:57:51;6.50;;;6.30;;
673;SDS011;319;48.764;9.174;2023-05-23T13:00:20;15.33;;;14.93;;
673;SDS011;319;48.764;9.174;2023-05-23T13:02:48;10.20;;;9.90;;
673;SDS011;319;48.764;9.174;2023-05-23T13:05:15;11.00;;;10.70;;
673;SDS011;319;48.764;9.174;2023-05-23T13:07:42;11.17;;;10.87;;
673;SDS011;319;48.764;9.174;2023-05-23T13:10:09;13.47;;;13.07;;
673;SDS011;319;48.764;9.174;2023-05-23T13:12:36;14.37;;;13.97;;
673;SDS011;319;48.764;9.174;2023-05-23T13:15:07;14.77;;;14.37;;
673;SDS011;319;48.764;9.174;2023-05-23T13:17:34;15.30;;;14.90;;
673;SDS011;319;48.764;9.174;2023-05-23T13:20:03;13.63;;;13.23;;
673;SDS011;319;48.764;9.174;2023-05-23T13:22:31;14.17;;;13.77;;
673;SDS011;319;48.764;9.174;2023-05-23T13:24:58;7.33;;;7.13;;
673;SDS011;319;48.764;9.174;2023-05-23T13:27:25;9.00;;;8.80;;
673;SDS011;319;48.764;9.174;2023-05-23T13:29:52;6.60;;;6.40;;
673;SDS011;319;48.764;9.174;2023-05-23T13:32:19;5.60;;;5.50;;
673;SDS011;319;48.764;9.174;2023-05-23T13:34:46;4.87;;;4.77;;
673;SDS011;319;48.764;9.174;2023-05-23T13:37:14;5.90;;;5.80;;
673;SDS011;319;48.764;9.174;2023-05-23T13:39:41;6.13;;;6.03;;
673;SDS011;319;48.764;9.174;2023-05-23T13:42:08;6.37;;;6.20;;
673;SDS011;319;48.764;9.174;2023-05-23T13:44:35;6.03;;;5.93;;
673;SDS011;319;48.764;9.174;2023-05-23T13:47:11;5.70;;;5.60;;
673;SDS011;319;48.764;9.174;2023-05-23T13:49:39;6.13;;;6.03;;
673;SDS011;319;48.764;9.174;2023-05-23T13:52:07;6.80;;;6.60;;
673;SDS011;319;48.764;9.174;2023-05-23T13:54:35;7.07;;;6.87;;
673;SDS011;319;48.764;9.174;2023-05-23T13:57:02;7.37;;;7.17;;
673;SDS011;319;48.764;9.174;2023-05-23T13:59:29;6.97;;;6.77;;
673;SDS011;319;48.764;9.174;2023-05-23T14:01:56;6.70;;;6.50;;
673;SDS011;319;48.764;9.174;2023-05-23T14:04:23;7.20;;;7.00;;
673;SDS011;319;48.764;9.174;2023-05-23T14:06:50;7.43;;;7.23;;
673;SDS011;319;48.764;9.174;2023-05-23T14:09:17;6.00;;;5.90;;
673;SDS011;319;48.764;9.174;2023-05-23T14:11:49;6.23;;;6.13;;
673;SDS011;319;48.764;9.174;2023-05-23T14:14:16;7.20;;;7.00;;
673;SDS011;319;48.764;9.174;2023-05-23T14:16:43;7.33;;;7.13;;
673;SDS011;319;48.764;9.174;2023-05-23T14:19:10;5.97;;;5.87;;
673;SDS011;319;48.764;9.174;2023-05-23T14:21:36;6.70;;;6.50;;
673;SDS011;319;48.764;9.174;2023-05-23T14:24:06;7.20;;;7.00;;
673;SDS011;319;48.764;9.174;2023-05-23T14:26:33;6.60;;;6.40;;
673;SDS011;319;48.764;9.174;2023-05-23T14:29:02;5.90;;;5.80;;
673;SDS011;319;48.764;9.174;2023-05-23T14:31:29;7.03;;;6.83;;
673;SDS011;319;48.764;9.174;2023-05-23T14:33:55;6.57;;;6.37;;
673;SDS011;319;48.764;9.174;2023-05-23T14:36:23;6.80;;;6.60;;
673;SDS011;319;48.764;9.174;2023-05-23T14:38:50;6.27;;;6.17;;
673;SDS011;319;48.764;9.174;2023-05-23T14:41:17;6.90;;;6.70;;
673;SDS011;319;48.764;9.174;2023-05-23T14:43:45;6.57;;;6.37;;
673;SDS011;319;48.764;9.174;2023-05-23T14:46:15;7.30;;;7.10;;
673;SDS011;319;48.764;9.174;2023-05-23T14:48:43;7.40;;;7.20;;
673;SDS011;319;48.764;9.174;2023-05-23T14:51:10;6.80;;;6.60;;
673;SDS011;319;48.764;9.174;2023-05-23T14:53:37;7.03;;;6.83;;
673;SDS011;319;48.764;9.174;2023-05-23T14:56:04;5.70;;;5.60;;
673;SDS011;319;48.764;9.174;2023-05-23T14:58:31;5.80;;;5.70;;
673;SDS011;319;48.764;9.174;2023-05-23T15:00:58;7.60;;;7.40;;
673;SDS011;319;48.764;9.174;2023-05-23T15:03:27;7.20;;;7.00;;
673;SDS011;319;48.764;9.174;2023-05-23T15:05:54;7.00;;;6.80;;
673;SDS011;319;48.764;9.174;2023-05-23T15:08:23;6.33;;;6.20;;
673;SDS011;319;48.764;9.174;2023-05-23T15:10:50;6.00;;;5.90;;
673;SDS011;319;48.764;9.174;2023-05-23T15:13:17;6.90;;;6.70;;
673;SDS011;319;48.764;9.174;2023-05-23T15:15:44;6.80;;;6.60;;
673;SDS011;319;48.764;9.174;2023-05-23T15:18:13;6.33;;;6.20;;
673;SDS011;319;48.764;9.174;2023-05-23T15:20:41;7.33;;;7.13;;
673;SDS011;319;48.764;9.174;2023-05-23T15:23:08;6.10;;;6.00;;
673;SDS011;319;48.764;9.174;2023-05-23T15:25:35;7.17;;;6.97;;
673;SDS011;319;48.764;9.174;2023-05-23T15:28:02;5.50;;;5.40;;
673;SDS011;319;48.764;9.174;2023-05-23T15:30:29;7.00;;;6.80;;
673;SDS011;319;48.764;9.174;2023-05-23T15:32:55;6.60;;;6.40;;
673;SDS011;319;48.764;9.174;2023-05-23T15:35:22;6.87;;;6.67;;
673;SDS011;319;48.764;9.174;2023-05-23T15:37:51;6.07;;;5.97;;
673;SDS011;319;48.764;9.174;2023-05-23T15:40:18;6.17;;;6.07;;
673;SDS011;319;48.764;9.174;2023-05-23T15:42:45;7.20;;;7.00;;
673;SDS011;319;48.764;9.174;2023-05-23T15:45:15;6.03;;;5.93;;
673;SDS011;319;48.764;9.174;2023-05-23T15:47:42;7.20;;;7.00;;
673;SDS011;319;48.764;9.174;2023-05-23T15:50:09;6.87;;;6.67;;